sensor_id;sensor_type;location;lat;lon;timestamp;P1;durP1;ratioP1;P2;durP2;ratioP2
5762;SDS011;2906;53.282;9.508;2023-10-31T00:00:49;4.43;;;3.42;;
5762;SDS011;2906;53.282;9.508;2023-10-31T00:01:51;6.85;;;3.58;;
5762;SDS011;2906;53.282;9.508;2023-10-31T00:02:53;8.10;;;3.95;;
5762;SDS011;2906;53.282;9.508;2023-10-31T00:03:54;10.73;;;3.92;;
5762;SDS011;2906;53.282;9.508;2023-10-31T00:04:56;7.82;;;3.97;;
5762;SDS011;2906;53.282;9.508;2023-10-31T00:05:57;7.45;;;3.72;;
5762;SDS011;2906;53.282;9.508;2023-10-31T00:07:00;4.57;;;3.85;;
5762;SDS011;2906;53.282;9.508;2023-10-31T00:08:01;8.07;;;4.00;;
5762;SDS011;2906;53.282;9.508;2023-10-31T00:09:03;5.55;;;4.22;;
5762;SDS011;2906;53.282;9.508;2023-10-31T00:10:05;6.03;;;4.55;;
5762;SDS011;2906;53.282;9.508;2023-10-31T00:11:07;8.50;;;4.22;;
5762;SDS011;2906;53.282;9.508;2023-10-31T00:12:08;9.50;;;4.00;;
5762;SDS011;2906;53.282;9.508;2023-10-31T00:13:11;6.22;;;4.45;;
5762;SDS011;2906;53.282;9.508;2023-10-31T00:14:12;5.90;;;3.80;;
5762;SDS011;2906;53.282;9.508;2023-10-31T00:15:16;6.18;;;4.05;;
5762;SDS011;2906;53.282;9.508;2023-10-31T00:16:17;6.15;;;4.00;;
5762;SDS011;2906;53.282;9.508;2023-10-31T00:17:20;4.30;;;3.53;;
5762;SDS011;2906;53.282;9.508;2023-10-31T00:18:21;5.25;;;3.88;;
5762;SDS011;2906;53.282;9.508;2023-10-31T00:19:23;8.85;;;4.25;;
5762;SDS011;2906;53.282;9.508;2023-10-31T00:20:25;8.48;;;4.25;;
5762;SDS011;2906;53.282;9.508;2023-10-31T00:21:27;6.75;;;3.88;;
5762;SDS011;2906;53.282;9.508;2023-10-31T00:22:28;8.27;;;4.05;;
5762;SDS011;2906;53.282;9.508;2023-10-31T00:23:30;4.70;;;4.30;;
5762;SDS011;2906;53.282;9.508;2023-10-31T00:24:32;11.50;;;4.30;;
5762;SDS011;2906;53.282;9.508;2023-10-31T00:25:34;3.92;;;3.53;;
5762;SDS011;2906;53.282;9.508;2023-10-31T00:26:35;5.35;;;3.65;;
5762;SDS011;2906;53.282;9.508;2023-10-31T00:27:37;5.95;;;4.30;;
5762;SDS011;2906;53.282;9.508;2023-10-31T00:28:39;6.97;;;4.00;;
5762;SDS011;2906;53.282;9.508;2023-10-31T00:29:40;6.90;;;4.10;;
5762;SDS011;2906;53.282;9.508;2023-10-31T00:30:44;7.28;;;4.00;;
5762;SDS011;2906;53.282;9.508;2023-10-31T00:31:45;5.25;;;3.80;;
5762;SDS011;2906;53.282;9.508;2023-10-31T00:32:47;12.88;;;5.05;;
5762;SDS011;2906;53.282;9.508;2023-10-31T00:33:48;8.60;;;4.47;;
5762;SDS011;2906;53.282;9.508;2023-10-31T00:34:51;5.93;;;3.97;;
5762;SDS011;2906;53.282;9.508;2023-10-31T00:35:52;12.75;;;4.45;;
5762;SDS011;2906;53.282;9.508;2023-10-31T00:36:54;8.00;;;4.68;;
5762;SDS011;2906;53.282;9.508;2023-10-31T00:37:56;6.00;;;3.80;;
5762;SDS011;2906;53.282;9.508;2023-10-31T00:38:58;5.97;;;4.07;;
5762;SDS011;2906;53.282;9.508;2023-10-31T00:39:59;7.43;;;4.20;;
5762;SDS011;2906;53.282;9.508;2023-10-31T00:41:02;7.55;;;4.43;;
5762;SDS011;2906;53.282;9.508;2023-10-31T00:42:03;6.88;;;4.15;;
5762;SDS011;2906;53.282;9.508;2023-10-31T00:43:05;14.82;;;4.25;;
5762;SDS011;2906;53.282;9.508;2023-10-31T00:44:11;10.48;;;4.07;;
5762;SDS011;2906;53.282;9.508;2023-10-31T00:46:57;6.03;;;4.20;;
5762;SDS011;2906;53.282;9.508;2023-10-31T00:48:03;8.55;;;4.20;;
5762;SDS011;2906;53.282;9.508;2023-10-31T00:49:05;6.25;;;3.92;;
5762;SDS011;2906;53.282;9.508;2023-10-31T00:50:07;6.97;;;4.20;;
5762;SDS011;2906;53.282;9.508;2023-10-31T00:51:09;8.38;;;4.85;;
5762;SDS011;2906;53.282;9.508;2023-10-31T00:52:11;7.75;;;4.43;;
5762;SDS011;2906;53.282;9.508;2023-10-31T00:53:12;8.35;;;4.15;;
5762;SDS011;2906;53.282;9.508;2023-10-31T00:54:16;10.50;;;4.57;;
5762;SDS011;2906;53.282;9.508;2023-10-31T00:55:17;7.13;;;3.95;;
5762;SDS011;2906;53.282;9.508;2023-10-31T00:56:20;12.43;;;4.78;;
5762;SDS011;2906;53.282;9.508;2023-10-31T00:57:21;7.45;;;4.72;;
5762;SDS011;2906;53.282;9.508;2023-10-31T00:58:23;7.85;;;3.97;;
5762;SDS011;2906;53.282;9.508;2023-10-31T00:59:25;6.47;;;4.30;;
5762;SDS011;2906;53.282;9.508;2023-10-31T01:00:27;5.93;;;4.13;;
5762;SDS011;2906;53.282;9.508;2023-10-31T01:01:28;7.68;;;4.30;;
5762;SDS011;2906;53.282;9.508;2023-10-31T01:02:32;6.05;;;4.45;;
5762;SDS011;2906;53.282;9.508;2023-10-31T01:03:33;13.10;;;4.35;;
5762;SDS011;2906;53.282;9.508;2023-10-31T01:04:35;8.98;;;4.80;;
5762;SDS011;2906;53.282;9.508;2023-10-31T01:05:37;14.32;;;4.10;;
5762;SDS011;2906;53.282;9.508;2023-10-31T01:06:40;13.35;;;4.07;;
5762;SDS011;2906;53.282;9.508;2023-10-31T01:07:42;7.03;;;4.57;;
5762;SDS011;2906;53.282;9.508;2023-10-31T01:08:44;10.98;;;5.07;;
5762;SDS011;2906;53.282;9.508;2023-10-31T01:09:45;7.10;;;4.72;;
5762;SDS011;2906;53.282;9.508;2023-10-31T01:10:47;13.70;;;4.70;;
5762;SDS011;2906;53.282;9.508;2023-10-31T01:11:49;8.93;;;4.97;;
5762;SDS011;2906;53.282;9.508;2023-10-31T01:12:51;21.33;;;5.10;;
5762;SDS011;2906;53.282;9.508;2023-10-31T01:13:52;7.00;;;4.40;;
5762;SDS011;2906;53.282;9.508;2023-10-31T01:14:55;21.27;;;4.70;;
5762;SDS011;2906;53.282;9.508;2023-10-31T01:16:05;9.43;;;4.85;;
5762;SDS011;2906;53.282;9.508;2023-10-31T01:17:25;11.70;;;5.18;;
5762;SDS011;2906;53.282;9.508;2023-10-31T01:18:28;7.70;;;5.18;;
5762;SDS011;2906;53.282;9.508;2023-10-31T01:19:30;7.10;;;5.35;;
5762;SDS011;2906;53.282;9.508;2023-10-31T01:20:32;15.02;;;5.35;;
5762;SDS011;2906;53.282;9.508;2023-10-31T01:21:33;5.72;;;4.63;;
5762;SDS011;2906;53.282;9.508;2023-10-31T01:22:35;8.73;;;5.72;;
5762;SDS011;2906;53.282;9.508;2023-10-31T01:23:37;11.18;;;5.50;;
5762;SDS011;2906;53.282;9.508;2023-10-31T01:24:39;5.93;;;4.93;;
5762;SDS011;2906;53.282;9.508;2023-10-31T01:25:40;12.93;;;5.10;;
5762;SDS011;2906;53.282;9.508;2023-10-31T01:26:43;7.35;;;5.03;;
5762;SDS011;2906;53.282;9.508;2023-10-31T01:27:44;12.88;;;5.75;;
5762;SDS011;2906;53.282;9.508;2023-10-31T01:28:46;10.05;;;5.78;;
5762;SDS011;2906;53.282;9.508;2023-10-31T01:29:47;8.90;;;5.30;;
5762;SDS011;2906;53.282;9.508;2023-10-31T01:30:50;15.63;;;5.45;;
5762;SDS011;2906;53.282;9.508;2023-10-31T01:31:51;13.05;;;6.00;;
5762;SDS011;2906;53.282;9.508;2023-10-31T01:32:53;13.02;;;6.00;;
5762;SDS011;2906;53.282;9.508;2023-10-31T01:33:56;16.98;;;6.22;;
5762;SDS011;2906;53.282;9.508;2023-10-31T01:34:57;7.30;;;5.30;;
5762;SDS011;2906;53.282;9.508;2023-10-31T01:36:00;14.95;;;6.50;;
5762;SDS011;2906;53.282;9.508;2023-10-31T01:37:01;13.90;;;6.22;;
5762;SDS011;2906;53.282;9.508;2023-10-31T01:38:03;9.05;;;6.20;;
5762;SDS011;2906;53.282;9.508;2023-10-31T01:39:05;7.43;;;5.78;;
5762;SDS011;2906;53.282;9.508;2023-10-31T01:40:08;9.45;;;6.47;;
5762;SDS011;2906;53.282;9.508;2023-10-31T01:41:10;9.63;;;5.95;;
5762;SDS011;2906;53.282;9.508;2023-10-31T01:42:13;7.78;;;6.40;;
5762;SDS011;2906;53.282;9.508;2023-10-31T01:43:28;10.27;;;6.40;;
5762;SDS011;2906;53.282;9.508;2023-10-31T01:44:29;8.50;;;6.05;;
5762;SDS011;2906;53.282;9.508;2023-10-31T01:45:32;10.43;;;6.45;;
5762;SDS011;2906;53.282;9.508;2023-10-31T01:46:33;11.52;;;7.28;;
5762;SDS011;2906;53.282;9.508;2023-10-31T01:47:35;16.98;;;6.45;;
5762;SDS011;2906;53.282;9.508;2023-10-31T01:48:37;9.13;;;6.43;;
5762;SDS011;2906;53.282;9.508;2023-10-31T01:49:41;10.73;;;6.57;;
5762;SDS011;2906;53.282;9.508;2023-10-31T01:50:42;16.58;;;7.60;;
5762;SDS011;2906;53.282;9.508;2023-10-31T01:51:45;18.55;;;7.70;;
5762;SDS011;2906;53.282;9.508;2023-10-31T01:52:46;14.18;;;7.60;;
5762;SDS011;2906;53.282;9.508;2023-10-31T01:53:49;12.15;;;7.20;;
5762;SDS011;2906;53.282;9.508;2023-10-31T01:54:50;19.15;;;6.63;;
5762;SDS011;2906;53.282;9.508;2023-10-31T01:55:52;10.32;;;7.05;;
5762;SDS011;2906;53.282;9.508;2023-10-31T01:56:56;11.88;;;6.95;;
5762;SDS011;2906;53.282;9.508;2023-10-31T01:57:58;10.32;;;6.63;;
5762;SDS011;2906;53.282;9.508;2023-10-31T01:59:00;9.00;;;7.13;;
5762;SDS011;2906;53.282;9.508;2023-10-31T02:00:03;12.82;;;7.43;;
5762;SDS011;2906;53.282;9.508;2023-10-31T02:01:05;8.77;;;6.22;;
5762;SDS011;2906;53.282;9.508;2023-10-31T02:02:06;19.05;;;7.20;;
5762;SDS011;2906;53.282;9.508;2023-10-31T02:03:09;15.13;;;7.43;;
5762;SDS011;2906;53.282;9.508;2023-10-31T02:04:10;13.48;;;6.97;;
5762;SDS011;2906;53.282;9.508;2023-10-31T02:05:15;12.90;;;7.57;;
5762;SDS011;2906;53.282;9.508;2023-10-31T02:06:16;12.52;;;7.93;;
5762;SDS011;2906;53.282;9.508;2023-10-31T02:07:19;13.20;;;8.07;;
5762;SDS011;2906;53.282;9.508;2023-10-31T02:08:20;11.02;;;6.82;;
5762;SDS011;2906;53.282;9.508;2023-10-31T02:09:21;11.40;;;7.68;;
5762;SDS011;2906;53.282;9.508;2023-10-31T02:10:26;16.40;;;7.32;;
5762;SDS011;2906;53.282;9.508;2023-10-31T02:11:28;19.02;;;7.20;;
5762;SDS011;2906;53.282;9.508;2023-10-31T02:12:31;14.20;;;7.68;;
5762;SDS011;2906;53.282;9.508;2023-10-31T02:13:33;16.27;;;7.95;;
5762;SDS011;2906;53.282;9.508;2023-10-31T02:14:35;16.30;;;8.00;;
5762;SDS011;2906;53.282;9.508;2023-10-31T02:15:37;11.65;;;8.35;;
5762;SDS011;2906;53.282;9.508;2023-10-31T02:16:38;12.00;;;7.95;;
5762;SDS011;2906;53.282;9.508;2023-10-31T02:17:41;15.32;;;8.35;;
5762;SDS011;2906;53.282;9.508;2023-10-31T02:18:42;9.30;;;7.20;;
5762;SDS011;2906;53.282;9.508;2023-10-31T02:19:45;11.23;;;7.65;;
5762;SDS011;2906;53.282;9.508;2023-10-31T02:20:47;14.32;;;8.55;;
5762;SDS011;2906;53.282;9.508;2023-10-31T02:21:51;14.82;;;7.55;;
5762;SDS011;2906;53.282;9.508;2023-10-31T02:22:52;10.13;;;7.43;;
5762;SDS011;2906;53.282;9.508;2023-10-31T02:23:56;12.20;;;7.82;;
5762;SDS011;2906;53.282;9.508;2023-10-31T02:24:58;10.73;;;7.15;;
5762;SDS011;2906;53.282;9.508;2023-10-31T02:26:00;17.25;;;8.18;;
5762;SDS011;2906;53.282;9.508;2023-10-31T02:27:02;17.70;;;8.55;;
5762;SDS011;2906;53.282;9.508;2023-10-31T02:28:04;17.58;;;8.40;;
5762;SDS011;2906;53.282;9.508;2023-10-31T02:29:06;14.35;;;8.68;;
5762;SDS011;2906;53.282;9.508;2023-10-31T02:30:08;10.35;;;8.40;;
5762;SDS011;2906;53.282;9.508;2023-10-31T02:31:10;15.18;;;9.05;;
5762;SDS011;2906;53.282;9.508;2023-10-31T02:32:12;15.20;;;8.10;;
5762;SDS011;2906;53.282;9.508;2023-10-31T02:33:13;16.25;;;9.02;;
5762;SDS011;2906;53.282;9.508;2023-10-31T02:34:15;15.05;;;8.23;;
5762;SDS011;2906;53.282;9.508;2023-10-31T02:35:17;16.63;;;8.52;;
5762;SDS011;2906;53.282;9.508;2023-10-31T02:36:19;19.75;;;8.60;;
5762;SDS011;2906;53.282;9.508;2023-10-31T02:37:22;17.17;;;9.30;;
5762;SDS011;2906;53.282;9.508;2023-10-31T02:38:24;19.52;;;8.95;;
5762;SDS011;2906;53.282;9.508;2023-10-31T02:39:26;15.15;;;8.52;;
5762;SDS011;2906;53.282;9.508;2023-10-31T02:40:27;17.00;;;10.30;;
5762;SDS011;2906;53.282;9.508;2023-10-31T02:41:29;14.30;;;9.07;;
5762;SDS011;2906;53.282;9.508;2023-10-31T02:42:31;23.60;;;9.27;;
5762;SDS011;2906;53.282;9.508;2023-10-31T02:43:32;15.25;;;9.40;;
5762;SDS011;2906;53.282;9.508;2023-10-31T02:44:35;18.40;;;10.00;;
5762;SDS011;2906;53.282;9.508;2023-10-31T02:45:36;16.15;;;8.77;;
5762;SDS011;2906;53.282;9.508;2023-10-31T02:46:38;20.30;;;9.43;;
5762;SDS011;2906;53.282;9.508;2023-10-31T02:47:40;15.63;;;9.02;;
5762;SDS011;2906;53.282;9.508;2023-10-31T02:48:42;16.80;;;10.38;;
5762;SDS011;2906;53.282;9.508;2023-10-31T02:49:43;18.08;;;10.68;;
5762;SDS011;2906;53.282;9.508;2023-10-31T02:50:46;17.67;;;9.85;;
5762;SDS011;2906;53.282;9.508;2023-10-31T02:51:47;21.70;;;9.63;;
5762;SDS011;2906;53.282;9.508;2023-10-31T02:52:50;14.80;;;9.48;;
5762;SDS011;2906;53.282;9.508;2023-10-31T02:53:52;14.88;;;9.77;;
5762;SDS011;2906;53.282;9.508;2023-10-31T02:54:53;18.90;;;10.70;;
5762;SDS011;2906;53.282;9.508;2023-10-31T02:55:54;12.85;;;8.80;;
5762;SDS011;2906;53.282;9.508;2023-10-31T02:56:57;14.43;;;8.32;;
5762;SDS011;2906;53.282;9.508;2023-10-31T02:57:58;12.75;;;9.02;;
5762;SDS011;2906;53.282;9.508;2023-10-31T02:59:01;19.42;;;9.02;;
5762;SDS011;2906;53.282;9.508;2023-10-31T03:00:02;14.65;;;8.35;;
5762;SDS011;2906;53.282;9.508;2023-10-31T03:01:04;12.75;;;8.95;;
5762;SDS011;2906;53.282;9.508;2023-10-31T03:02:06;12.70;;;9.30;;
5762;SDS011;2906;53.282;9.508;2023-10-31T03:03:08;17.60;;;9.45;;
5762;SDS011;2906;53.282;9.508;2023-10-31T03:04:10;14.25;;;9.60;;
5762;SDS011;2906;53.282;9.508;2023-10-31T03:05:12;14.50;;;9.20;;
5762;SDS011;2906;53.282;9.508;2023-10-31T03:06:14;10.63;;;8.40;;
5762;SDS011;2906;53.282;9.508;2023-10-31T03:07:15;13.32;;;9.10;;
5762;SDS011;2906;53.282;9.508;2023-10-31T03:08:19;13.90;;;10.10;;
5762;SDS011;2906;53.282;9.508;2023-10-31T03:09:21;18.70;;;9.95;;
5762;SDS011;2906;53.282;9.508;2023-10-31T03:10:23;16.30;;;10.02;;
5762;SDS011;2906;53.282;9.508;2023-10-31T03:11:25;16.40;;;9.70;;
5762;SDS011;2906;53.282;9.508;2023-10-31T03:12:27;16.50;;;10.13;;
5762;SDS011;2906;53.282;9.508;2023-10-31T03:13:29;15.95;;;10.10;;
5762;SDS011;2906;53.282;9.508;2023-10-31T03:14:30;13.73;;;9.20;;
5762;SDS011;2906;53.282;9.508;2023-10-31T03:15:32;11.32;;;9.52;;
5762;SDS011;2906;53.282;9.508;2023-10-31T03:16:34;17.95;;;9.20;;
5762;SDS011;2906;53.282;9.508;2023-10-31T03:17:36;15.20;;;10.10;;
5762;SDS011;2906;53.282;9.508;2023-10-31T03:18:37;15.48;;;10.13;;
5762;SDS011;2906;53.282;9.508;2023-10-31T03:19:40;13.15;;;9.70;;
5762;SDS011;2906;53.282;9.508;2023-10-31T03:20:43;14.10;;;10.10;;
5762;SDS011;2906;53.282;9.508;2023-10-31T03:21:46;16.27;;;10.02;;
5762;SDS011;2906;53.282;9.508;2023-10-31T03:22:50;15.95;;;10.05;;
5762;SDS011;2906;53.282;9.508;2023-10-31T03:23:54;16.35;;;9.43;;
5762;SDS011;2906;53.282;9.508;2023-10-31T03:24:55;13.57;;;10.07;;
5762;SDS011;2906;53.282;9.508;2023-10-31T03:25:57;15.55;;;9.27;;
5762;SDS011;2906;53.282;9.508;2023-10-31T03:26:59;13.63;;;9.45;;
5762;SDS011;2906;53.282;9.508;2023-10-31T03:28:01;14.13;;;9.75;;
5762;SDS011;2906;53.282;9.508;2023-10-31T03:29:03;13.57;;;9.98;;
5762;SDS011;2906;53.282;9.508;2023-10-31T03:30:05;14.95;;;9.45;;
5762;SDS011;2906;53.282;9.508;2023-10-31T03:31:07;12.40;;;9.63;;
5762;SDS011;2906;53.282;9.508;2023-10-31T03:32:09;12.40;;;9.48;;
5762;SDS011;2906;53.282;9.508;2023-10-31T03:33:12;18.90;;;9.20;;
5762;SDS011;2906;53.282;9.508;2023-10-31T03:34:13;16.63;;;9.23;;
5762;SDS011;2906;53.282;9.508;2023-10-31T03:35:15;16.67;;;8.82;;
5762;SDS011;2906;53.282;9.508;2023-10-31T03:36:17;12.93;;;9.20;;
5762;SDS011;2906;53.282;9.508;2023-10-31T03:37:18;16.38;;;9.82;;
5762;SDS011;2906;53.282;9.508;2023-10-31T03:38:20;15.88;;;9.88;;
5762;SDS011;2906;53.282;9.508;2023-10-31T03:39:23;13.80;;;9.00;;
5762;SDS011;2906;53.282;9.508;2023-10-31T03:40:25;11.82;;;9.15;;
5762;SDS011;2906;53.282;9.508;2023-10-31T03:41:26;13.63;;;9.20;;
5762;SDS011;2906;53.282;9.508;2023-10-31T03:42:29;23.02;;;9.80;;
5762;SDS011;2906;53.282;9.508;2023-10-31T03:43:30;13.52;;;9.55;;
5762;SDS011;2906;53.282;9.508;2023-10-31T03:44:32;14.95;;;10.38;;
5762;SDS011;2906;53.282;9.508;2023-10-31T03:45:34;12.40;;;9.73;;
5762;SDS011;2906;53.282;9.508;2023-10-31T03:46:35;13.85;;;10.57;;
5762;SDS011;2906;53.282;9.508;2023-10-31T03:47:37;11.82;;;9.90;;
5762;SDS011;2906;53.282;9.508;2023-10-31T03:48:39;19.30;;;10.00;;
5762;SDS011;2906;53.282;9.508;2023-10-31T03:49:41;15.20;;;10.05;;
5762;SDS011;2906;53.282;9.508;2023-10-31T03:50:42;13.52;;;10.15;;
5762;SDS011;2906;53.282;9.508;2023-10-31T03:51:44;16.20;;;10.50;;
5762;SDS011;2906;53.282;9.508;2023-10-31T03:52:46;17.80;;;10.80;;
5762;SDS011;2906;53.282;9.508;2023-10-31T03:53:48;16.55;;;10.73;;
5762;SDS011;2906;53.282;9.508;2023-10-31T03:54:51;14.98;;;10.90;;
5762;SDS011;2906;53.282;9.508;2023-10-31T03:55:53;16.15;;;11.60;;
5762;SDS011;2906;53.282;9.508;2023-10-31T03:56:55;17.35;;;10.63;;
5762;SDS011;2906;53.282;9.508;2023-10-31T03:57:56;16.75;;;10.50;;
5762;SDS011;2906;53.282;9.508;2023-10-31T03:58:59;17.25;;;10.90;;
5762;SDS011;2906;53.282;9.508;2023-10-31T04:00:00;17.65;;;12.75;;
5762;SDS011;2906;53.282;9.508;2023-10-31T04:01:04;15.93;;;11.45;;
5762;SDS011;2906;53.282;9.508;2023-10-31T04:02:06;17.85;;;11.32;;
5762;SDS011;2906;53.282;9.508;2023-10-31T04:03:08;17.60;;;12.25;;
5762;SDS011;2906;53.282;9.508;2023-10-31T04:04:10;17.83;;;12.10;;
5762;SDS011;2906;53.282;9.508;2023-10-31T04:05:11;19.55;;;13.07;;
5762;SDS011;2906;53.282;9.508;2023-10-31T04:06:14;23.17;;;12.23;;
5762;SDS011;2906;53.282;9.508;2023-10-31T04:07:15;21.15;;;12.23;;
5762;SDS011;2906;53.282;9.508;2023-10-31T04:08:16;19.10;;;13.05;;
5762;SDS011;2906;53.282;9.508;2023-10-31T04:09:19;20.45;;;13.65;;
5762;SDS011;2906;53.282;9.508;2023-10-31T04:10:22;20.48;;;13.10;;
5762;SDS011;2906;53.282;9.508;2023-10-31T04:11:23;21.77;;;12.75;;
5762;SDS011;2906;53.282;9.508;2023-10-31T04:12:26;18.17;;;13.23;;
5762;SDS011;2906;53.282;9.508;2023-10-31T04:13:27;20.52;;;13.57;;
5762;SDS011;2906;53.282;9.508;2023-10-31T04:14:28;26.90;;;14.07;;
5762;SDS011;2906;53.282;9.508;2023-10-31T04:15:31;19.30;;;12.90;;
5762;SDS011;2906;53.282;9.508;2023-10-31T04:16:37;19.77;;;14.52;;
5762;SDS011;2906;53.282;9.508;2023-10-31T04:17:39;27.08;;;14.65;;
5762;SDS011;2906;53.282;9.508;2023-10-31T04:18:41;25.70;;;13.60;;
5762;SDS011;2906;53.282;9.508;2023-10-31T04:19:46;21.65;;;13.68;;
5762;SDS011;2906;53.282;9.508;2023-10-31T04:20:47;28.55;;;15.10;;
5762;SDS011;2906;53.282;9.508;2023-10-31T04:21:50;20.90;;;13.95;;
5762;SDS011;2906;53.282;9.508;2023-10-31T04:22:51;19.08;;;13.48;;
5762;SDS011;2906;53.282;9.508;2023-10-31T04:23:52;24.20;;;14.27;;
5762;SDS011;2906;53.282;9.508;2023-10-31T04:24:55;23.98;;;15.30;;
5762;SDS011;2906;53.282;9.508;2023-10-31T04:25:58;28.08;;;14.40;;
5762;SDS011;2906;53.282;9.508;2023-10-31T04:27:00;24.63;;;14.23;;
5762;SDS011;2906;53.282;9.508;2023-10-31T04:28:02;24.40;;;15.23;;
5762;SDS011;2906;53.282;9.508;2023-10-31T04:29:04;24.70;;;15.30;;
5762;SDS011;2906;53.282;9.508;2023-10-31T04:30:06;25.20;;;14.23;;
5762;SDS011;2906;53.282;9.508;2023-10-31T04:31:08;25.13;;;16.02;;
5762;SDS011;2906;53.282;9.508;2023-10-31T04:32:09;22.30;;;13.73;;
5762;SDS011;2906;53.282;9.508;2023-10-31T04:33:12;28.23;;;14.95;;
5762;SDS011;2906;53.282;9.508;2023-10-31T04:34:13;27.40;;;14.90;;
5762;SDS011;2906;53.282;9.508;2023-10-31T04:35:15;27.30;;;15.77;;
5762;SDS011;2906;53.282;9.508;2023-10-31T04:36:17;31.73;;;15.70;;
5762;SDS011;2906;53.282;9.508;2023-10-31T04:37:19;26.88;;;16.85;;
5762;SDS011;2906;53.282;9.508;2023-10-31T04:38:20;26.40;;;15.18;;
5762;SDS011;2906;53.282;9.508;2023-10-31T04:39:23;28.58;;;15.50;;
5762;SDS011;2906;53.282;9.508;2023-10-31T04:40:24;26.77;;;15.23;;
5762;SDS011;2906;53.282;9.508;2023-10-31T04:41:28;31.58;;;16.52;;
5762;SDS011;2906;53.282;9.508;2023-10-31T04:42:30;29.38;;;15.88;;
5762;SDS011;2906;53.282;9.508;2023-10-31T04:43:33;29.27;;;16.23;;
5762;SDS011;2906;53.282;9.508;2023-10-31T04:44:35;32.22;;;15.50;;
5762;SDS011;2906;53.282;9.508;2023-10-31T04:45:37;30.42;;;16.92;;
5762;SDS011;2906;53.282;9.508;2023-10-31T04:46:38;28.05;;;16.25;;
5762;SDS011;2906;53.282;9.508;2023-10-31T04:47:41;32.53;;;16.60;;
5762;SDS011;2906;53.282;9.508;2023-10-31T04:48:42;31.65;;;17.23;;
5762;SDS011;2906;53.282;9.508;2023-10-31T04:49:44;26.38;;;16.55;;
5762;SDS011;2906;53.282;9.508;2023-10-31T04:50:46;27.10;;;16.67;;
5762;SDS011;2906;53.282;9.508;2023-10-31T04:51:48;25.55;;;15.88;;
5762;SDS011;2906;53.282;9.508;2023-10-31T04:52:49;27.60;;;16.35;;
5762;SDS011;2906;53.282;9.508;2023-10-31T04:53:51;33.70;;;15.85;;
5762;SDS011;2906;53.282;9.508;2023-10-31T04:54:53;30.15;;;16.95;;
5762;SDS011;2906;53.282;9.508;2023-10-31T04:55:54;34.90;;;16.25;;
5762;SDS011;2906;53.282;9.508;2023-10-31T04:56:58;27.23;;;15.40;;
5762;SDS011;2906;53.282;9.508;2023-10-31T04:57:59;29.10;;;15.70;;
5762;SDS011;2906;53.282;9.508;2023-10-31T04:59:01;30.23;;;15.23;;
5762;SDS011;2906;53.282;9.508;2023-10-31T05:00:03;25.88;;;15.38;;
5762;SDS011;2906;53.282;9.508;2023-10-31T05:01:07;31.65;;;15.32;;
5762;SDS011;2906;53.282;9.508;2023-10-31T05:02:09;23.90;;;14.95;;
5762;SDS011;2906;53.282;9.508;2023-10-31T05:03:11;25.42;;;14.90;;
5762;SDS011;2906;53.282;9.508;2023-10-31T05:04:13;22.50;;;13.15;;
5762;SDS011;2906;53.282;9.508;2023-10-31T05:05:14;16.88;;;11.65;;
5762;SDS011;2906;53.282;9.508;2023-10-31T05:06:18;19.15;;;11.68;;
5762;SDS011;2906;53.282;9.508;2023-10-31T05:07:20;25.15;;;13.27;;
5762;SDS011;2906;53.282;9.508;2023-10-31T05:08:22;22.40;;;11.25;;
5762;SDS011;2906;53.282;9.508;2023-10-31T05:09:23;26.75;;;12.63;;
5762;SDS011;2906;53.282;9.508;2023-10-31T05:10:26;24.55;;;12.73;;
5762;SDS011;2906;53.282;9.508;2023-10-31T05:11:28;17.05;;;10.25;;
5762;SDS011;2906;53.282;9.508;2023-10-31T05:12:31;17.00;;;11.02;;
5762;SDS011;2906;53.282;9.508;2023-10-31T05:13:33;22.27;;;10.40;;
5762;SDS011;2906;53.282;9.508;2023-10-31T05:14:35;17.52;;;10.50;;
5762;SDS011;2906;53.282;9.508;2023-10-31T05:15:36;17.48;;;10.40;;
5762;SDS011;2906;53.282;9.508;2023-10-31T05:16:39;15.40;;;9.52;;
5762;SDS011;2906;53.282;9.508;2023-10-31T05:17:40;14.30;;;9.10;;
5762;SDS011;2906;53.282;9.508;2023-10-31T05:18:42;25.02;;;9.27;;
5762;SDS011;2906;53.282;9.508;2023-10-31T05:19:44;19.08;;;10.02;;
5762;SDS011;2906;53.282;9.508;2023-10-31T05:20:46;14.43;;;8.65;;
5762;SDS011;2906;53.282;9.508;2023-10-31T05:21:48;13.63;;;8.77;;
5762;SDS011;2906;53.282;9.508;2023-10-31T05:22:49;15.00;;;8.90;;
5762;SDS011;2906;53.282;9.508;2023-10-31T05:23:51;18.08;;;8.90;;
5762;SDS011;2906;53.282;9.508;2023-10-31T05:24:53;14.40;;;8.38;;
5762;SDS011;2906;53.282;9.508;2023-10-31T05:25:55;15.93;;;8.32;;
5762;SDS011;2906;53.282;9.508;2023-10-31T05:26:57;13.55;;;7.90;;
5762;SDS011;2906;53.282;9.508;2023-10-31T05:28:00;13.60;;;8.27;;
5762;SDS011;2906;53.282;9.508;2023-10-31T05:29:02;13.65;;;7.65;;
5762;SDS011;2906;53.282;9.508;2023-10-31T05:30:04;12.40;;;8.25;;
5762;SDS011;2906;53.282;9.508;2023-10-31T05:31:05;11.73;;;7.65;;
5762;SDS011;2906;53.282;9.508;2023-10-31T05:32:07;11.68;;;7.38;;
5762;SDS011;2906;53.282;9.508;2023-10-31T05:33:09;14.75;;;7.05;;
5762;SDS011;2906;53.282;9.508;2023-10-31T05:34:11;12.40;;;7.53;;
5762;SDS011;2906;53.282;9.508;2023-10-31T05:35:13;15.27;;;6.25;;
5762;SDS011;2906;53.282;9.508;2023-10-31T05:36:18;9.25;;;6.28;;
5762;SDS011;2906;53.282;9.508;2023-10-31T05:37:20;8.65;;;6.55;;
5762;SDS011;2906;53.282;9.508;2023-10-31T05:38:22;8.25;;;6.35;;
5762;SDS011;2906;53.282;9.508;2023-10-31T05:39:23;7.70;;;6.22;;
5762;SDS011;2906;53.282;9.508;2023-10-31T05:40:26;8.20;;;5.85;;
5762;SDS011;2906;53.282;9.508;2023-10-31T05:41:29;8.45;;;6.25;;
5762;SDS011;2906;53.282;9.508;2023-10-31T05:42:32;8.60;;;5.53;;
5762;SDS011;2906;53.282;9.508;2023-10-31T05:43:35;5.90;;;5.25;;
5762;SDS011;2906;53.282;9.508;2023-10-31T05:44:36;8.55;;;5.53;;
5762;SDS011;2906;53.282;9.508;2023-10-31T05:45:39;5.90;;;5.00;;
5762;SDS011;2906;53.282;9.508;2023-10-31T05:46:41;7.60;;;5.63;;
5762;SDS011;2906;53.282;9.508;2023-10-31T05:47:43;7.25;;;5.18;;
5762;SDS011;2906;53.282;9.508;2023-10-31T05:48:44;6.20;;;5.35;;
5762;SDS011;2906;53.282;9.508;2023-10-31T05:49:47;8.63;;;5.57;;
5762;SDS011;2906;53.282;9.508;2023-10-31T05:50:48;7.00;;;5.82;;
5762;SDS011;2906;53.282;9.508;2023-10-31T05:51:51;8.80;;;5.85;;
5762;SDS011;2906;53.282;9.508;2023-10-31T05:52:52;8.05;;;5.93;;
5762;SDS011;2906;53.282;9.508;2023-10-31T05:53:54;7.32;;;6.10;;
5762;SDS011;2906;53.282;9.508;2023-10-31T05:54:56;6.80;;;6.05;;
5762;SDS011;2906;53.282;9.508;2023-10-31T05:55:57;10.10;;;6.72;;
5762;SDS011;2906;53.282;9.508;2023-10-31T05:56:59;14.40;;;6.45;;
5762;SDS011;2906;53.282;9.508;2023-10-31T05:58:01;7.70;;;6.90;;
5762;SDS011;2906;53.282;9.508;2023-10-31T05:59:04;10.45;;;7.35;;
5762;SDS011;2906;53.282;9.508;2023-10-31T06:00:06;11.20;;;7.68;;
5762;SDS011;2906;53.282;9.508;2023-10-31T06:01:08;11.10;;;8.10;;
5762;SDS011;2906;53.282;9.508;2023-10-31T06:02:10;12.65;;;9.40;;
5762;SDS011;2906;53.282;9.508;2023-10-31T06:03:12;14.85;;;9.95;;
5762;SDS011;2906;53.282;9.508;2023-10-31T06:04:13;14.40;;;9.38;;
5762;SDS011;2906;53.282;9.508;2023-10-31T06:05:15;17.35;;;11.93;;
5762;SDS011;2906;53.282;9.508;2023-10-31T06:06:17;15.43;;;10.38;;
5762;SDS011;2906;53.282;9.508;2023-10-31T06:07:19;19.65;;;12.20;;
5762;SDS011;2906;53.282;9.508;2023-10-31T06:08:20;17.25;;;11.98;;
5762;SDS011;2906;53.282;9.508;2023-10-31T06:09:24;17.20;;;12.70;;
5762;SDS011;2906;53.282;9.508;2023-10-31T06:10:26;17.17;;;12.00;;
5762;SDS011;2906;53.282;9.508;2023-10-31T06:11:27;20.00;;;13.15;;
5762;SDS011;2906;53.282;9.508;2023-10-31T06:12:30;20.80;;;12.80;;
5762;SDS011;2906;53.282;9.508;2023-10-31T06:13:31;20.27;;;13.13;;
5762;SDS011;2906;53.282;9.508;2023-10-31T06:14:35;21.63;;;13.05;;
5762;SDS011;2906;53.282;9.508;2023-10-31T06:15:36;22.58;;;14.25;;
5762;SDS011;2906;53.282;9.508;2023-10-31T06:16:39;19.75;;;13.27;;
5762;SDS011;2906;53.282;9.508;2023-10-31T06:17:41;22.15;;;13.65;;
5762;SDS011;2906;53.282;9.508;2023-10-31T06:18:43;21.27;;;14.40;;
5762;SDS011;2906;53.282;9.508;2023-10-31T06:19:45;25.77;;;15.00;;
5762;SDS011;2906;53.282;9.508;2023-10-31T06:20:47;31.35;;;15.13;;
5762;SDS011;2906;53.282;9.508;2023-10-31T06:21:49;26.23;;;15.50;;